createdAt,value
2019-02-19T00:02:26.062Z,8.20
2019-02-19T00:04:55.959Z,8.20
2019-02-19T00:07:24.368Z,8.20
2019-02-19T00:09:54.566Z,8.20
2019-02-19T00:12:22.806Z,8.30
2019-02-19T00:14:51.530Z,8.30
2019-02-19T00:17:20.726Z,8.30
2019-02-19T00:19:49.043Z,8.30
2019-02-19T00:22:17.414Z,8.40
2019-02-19T00:24:46.582Z,8.30
2019-02-19T00:27:14.936Z,8.30
2019-02-19T00:29:43.208Z,8.30
2019-02-19T00:32:11.942Z,8.30
2019-02-19T00:34:40.345Z,8.20
2019-02-19T00:37:08.730Z,8.30
2019-02-19T00:39:37.902Z,8.30
2019-02-19T00:42:06.143Z,8.30
2019-02-19T00:44:34.709Z,8.30
2019-02-19T00:47:03.430Z,8.30
2019-02-19T00:49:31.675Z,8.30
2019-02-19T00:51:59.907Z,8.20
2019-02-19T00:54:28.433Z,8.20
2019-02-19T00:56:56.693Z,8.20
2019-02-19T00:59:24.990Z,8.20
2019-02-19T01:01:54.170Z,8.10
2019-02-19T01:04:25.094Z,8.00
2019-02-19T01:06:53.321Z,8.00
2019-02-19T01:09:22.047Z,8.00
2019-02-19T01:11:50.320Z,7.90
2019-02-19T01:14:18.579Z,7.90
2019-02-19T01:16:46.909Z,7.80
2019-02-19T01:19:15.543Z,7.80
2019-02-19T01:21:43.778Z,7.80
2019-02-19T01:24:12.121Z,7.90
2019-02-19T01:26:41.244Z,7.90
2019-02-19T01:29:09.820Z,7.90
2019-02-19T01:31:38.086Z,7.90
2019-02-19T01:34:06.539Z,8.00
2019-02-19T01:36:34.951Z,8.00
2019-02-19T01:39:04.707Z,8.10
2019-02-19T01:41:32.993Z,8.20
2019-02-19T01:44:02.409Z,8.20
2019-02-19T01:46:30.812Z,8.30
2019-02-19T01:48:59.222Z,8.30
2019-02-19T01:51:29.279Z,8.30
2019-02-19T01:53:57.702Z,8.40
2019-02-19T01:56:26.132Z,8.50
2019-02-19T01:58:54.948Z,8.60
2019-02-19T02:01:23.235Z,8.70
2019-02-19T02:03:51.467Z,8.70
2019-02-19T02:06:21.870Z,8.70
2019-02-19T02:08:50.792Z,8.90
2019-02-19T02:11:19.109Z,8.90
2019-02-19T02:13:48.083Z,8.90
2019-02-19T02:16:16.335Z,8.80
2019-02-19T02:18:44.950Z,8.80
2019-02-19T02:21:14.137Z,8.80
2019-02-19T02:23:43.950Z,8.80
2019-02-19T02:26:12.204Z,8.80
2019-02-19T02:28:41.011Z,8.80
2019-02-19T02:31:09.320Z,8.80
2019-02-19T02:33:37.585Z,8.90
2019-02-19T02:36:06.762Z,9.00
2019-02-19T02:38:35.169Z,9.00
2019-02-19T02:41:03.467Z,9.00
2019-02-19T02:43:32.533Z,8.90
2019-02-19T02:46:00.834Z,8.90
2019-02-19T02:48:29.106Z,8.90
2019-02-19T02:50:58.375Z,8.90
2019-02-19T02:53:27.685Z,9.00
2019-02-19T02:55:56.098Z,8.90
2019-02-19T02:58:25.700Z,9.00
2019-02-19T03:00:53.953Z,8.90
2019-02-19T03:03:22.264Z,8.90
2019-02-19T03:06:03.641Z,8.90
2019-02-19T03:08:33.010Z,8.90
2019-02-19T03:11:01.287Z,8.90
2019-02-19T03:13:29.929Z,8.90
2019-02-19T03:16:02.513Z,8.90
2019-02-19T03:18:29.734Z,8.80
2019-02-19T03:20:59.006Z,8.80
2019-02-19T03:23:27.780Z,8.80
2019-02-19T03:25:56.800Z,8.80
2019-02-19T03:28:25.494Z,8.90
2019-02-19T03:30:54.110Z,8.90
2019-02-19T03:33:23.744Z,8.80
2019-02-19T03:35:52.570Z,8.80
2019-02-19T03:38:20.847Z,8.80
2019-02-19T03:40:49.274Z,8.80
2019-02-19T03:43:19.214Z,8.80
2019-02-19T03:45:48.894Z,8.70
2019-02-19T03:48:17.222Z,8.70
2019-02-19T03:50:45.823Z,8.70
2019-02-19T03:53:15.936Z,8.70
2019-02-19T03:55:44.218Z,8.70
2019-02-19T03:58:13.790Z,8.70
2019-02-19T04:00:42.292Z,8.70
2019-02-19T04:03:10.521Z,8.60
2019-02-19T04:05:38.953Z,8.60
2019-02-19T04:08:07.261Z,8.60
2019-02-19T04:10:35.911Z,8.60
2019-02-19T04:13:05.672Z,8.50
2019-02-19T04:15:34.574Z,8.50
2019-02-19T04:18:03.684Z,8.50
2019-02-19T04:20:32.241Z,8.50
2019-02-19T04:23:00.474Z,8.40
2019-02-19T04:25:29.660Z,8.40
2019-02-19T04:27:58.081Z,8.30
2019-02-19T04:30:27.227Z,8.30
2019-02-19T04:32:56.038Z,8.30
2019-02-19T04:35:24.461Z,8.30
2019-02-19T04:37:52.758Z,8.30
2019-02-19T04:40:21.613Z,8.30
2019-02-19T04:42:49.912Z,8.30
2019-02-19T04:45:18.168Z,8.30
2019-02-19T04:47:46.822Z,8.30
2019-02-19T04:50:15.123Z,8.30
2019-02-19T04:52:43.453Z,8.30
2019-02-19T04:55:17.710Z,8.30
2019-02-19T04:57:46.467Z,8.40
2019-02-19T05:00:14.821Z,8.30
2019-02-19T05:02:43.330Z,8.30
2019-02-19T05:05:11.569Z,8.30
2019-02-19T05:07:39.868Z,8.30
2019-02-19T05:10:09.134Z,8.30
2019-02-19T05:12:37.387Z,8.30
2019-02-19T05:15:10.309Z,8.30
2019-02-19T05:17:38.810Z,8.30
2019-02-19T05:20:09.963Z,8.30
2019-02-19T05:22:38.393Z,8.40
2019-02-19T05:25:09.246Z,8.30
2019-02-19T05:27:37.482Z,8.40
2019-02-19T05:30:09.141Z,8.30
2019-02-19T05:32:37.509Z,8.40
2019-02-19T05:35:06.982Z,8.40
2019-02-19T05:37:35.412Z,8.40
2019-02-19T05:40:06.043Z,8.40
2019-02-19T05:42:34.305Z,8.40
2019-02-19T05:45:05.664Z,8.30
2019-02-19T05:47:33.967Z,8.30
2019-02-19T05:50:02.357Z,8.30
2019-02-19T05:52:30.902Z,8.20
2019-02-19T05:54:59.158Z,8.30
2019-02-19T05:57:27.469Z,8.20
2019-02-19T05:59:55.729Z,8.20
2019-02-19T06:02:24.326Z,8.20
2019-02-19T06:04:52.547Z,8.20
2019-02-19T06:07:20.786Z,8.20
2019-02-19T06:09:49.265Z,8.10
2019-02-19T06:12:17.533Z,8.10
2019-02-19T06:14:45.851Z,8.20
2019-02-19T06:17:14.399Z,8.10
2019-02-19T06:19:42.706Z,8.10
2019-02-19T06:22:10.938Z,8.10
2019-02-19T06:24:39.261Z,8.10
2019-02-19T06:27:07.513Z,8.20
2019-02-19T06:29:35.766Z,8.10
2019-02-19T06:32:04.354Z,8.10
2019-02-19T06:34:32.602Z,8.10
2019-02-19T06:37:00.863Z,8.10
2019-02-19T06:39:29.297Z,8.10
2019-02-19T06:41:57.598Z,8.10
2019-02-19T06:44:25.922Z,8.10
2019-02-19T06:46:54.273Z,8.10
2019-02-19T06:49:22.657Z,8.10
2019-02-19T06:51:51.570Z,8.00
2019-02-19T06:54:20.010Z,8.00
2019-02-19T06:56:52.386Z,8.00
2019-02-19T06:59:21.047Z,8.00
2019-02-19T07:01:54.155Z,8.00
2019-02-19T07:04:27.046Z,8.00
2019-02-19T07:07:00.723Z,8.00
2019-02-19T07:09:28.960Z,8.10
2019-02-19T07:11:58.875Z,8.10
2019-02-19T07:14:27.481Z,8.00
2019-02-19T07:16:55.755Z,8.10
2019-02-19T07:19:24.100Z,8.10
2019-02-19T07:21:52.515Z,8.10
2019-02-19T07:24:20.807Z,8.10
2019-02-19T07:26:49.053Z,8.10
2019-02-19T07:29:17.394Z,8.10
2019-02-19T07:31:45.625Z,8.10
2019-02-19T07:34:14.115Z,8.10
2019-02-19T07:36:42.653Z,8.00
2019-02-19T07:39:10.923Z,8.10
2019-02-19T07:41:39.193Z,8.10
2019-02-19T07:44:07.656Z,8.20
2019-02-19T07:46:35.889Z,8.20
2019-02-19T07:49:04.128Z,8.20
2019-02-19T07:51:32.595Z,8.20
2019-02-19T07:54:00.861Z,8.30
2019-02-19T07:56:31.206Z,8.30
2019-02-19T07:59:00.252Z,8.40
2019-02-19T08:01:28.486Z,8.40
2019-02-19T08:03:56.719Z,8.40
2019-02-19T08:06:26.708Z,8.50
2019-02-19T08:08:54.955Z,8.40
2019-02-19T08:11:23.288Z,8.50
2019-02-19T08:13:51.665Z,8.40
2019-02-19T08:16:19.891Z,8.30
2019-02-19T08:18:48.135Z,8.30
2019-02-19T08:21:16.464Z,8.30
2019-02-19T08:23:44.707Z,8.30
2019-02-19T08:26:12.954Z,8.30
2019-02-19T08:28:41.235Z,8.20
2019-02-19T08:31:11.280Z,8.20
2019-02-19T08:33:39.546Z,8.20
2019-02-19T08:36:07.902Z,8.30
2019-02-19T08:38:36.231Z,8.70
2019-02-19T08:41:04.465Z,9.20
2019-02-19T08:43:36.393Z,9.80
2019-02-19T08:46:04.829Z,10.50
2019-02-19T08:48:33.105Z,10.80
2019-02-19T08:51:01.393Z,10.80
2019-02-19T08:53:29.859Z,11.00
2019-02-19T08:56:03.927Z,10.90
2019-02-19T08:58:32.190Z,11.00
2019-02-19T09:01:00.674Z,11.50
2019-02-19T09:03:28.949Z,11.00
2019-02-19T09:05:57.285Z,11.20
2019-02-19T09:08:25.705Z,11.80
2019-02-19T09:10:54.018Z,12.00
2019-02-19T09:13:22.895Z,12.30
2019-02-19T09:15:51.358Z,12.30
2019-02-19T09:18:19.606Z,11.90
2019-02-19T09:20:47.938Z,11.90
2019-02-19T09:23:16.265Z,12.10
2019-02-19T09:25:44.537Z,11.90
2019-02-19T09:28:13.161Z,12.00
2019-02-19T09:30:43.401Z,12.20
2019-02-19T09:33:11.906Z,12.00
2019-02-19T09:35:40.495Z,11.60
2019-02-19T09:38:09.438Z,11.50
2019-02-19T09:40:38.214Z,11.30
2019-02-19T09:43:06.480Z,11.40
2019-02-19T09:45:34.767Z,11.30
2019-02-19T09:48:03.113Z,11.70
2019-02-19T09:50:31.646Z,12.10
2019-02-19T09:53:00.451Z,12.10
2019-02-19T09:55:28.870Z,12.60
2019-02-19T09:57:57.273Z,12.80
2019-02-19T10:00:25.504Z,12.70
2019-02-19T10:02:53.802Z,12.80
2019-02-19T10:05:22.275Z,12.60
2019-02-19T10:07:50.602Z,12.60
2019-02-19T10:10:22.118Z,12.60
2019-02-19T10:12:52.246Z,12.40
2019-02-19T10:15:20.509Z,12.60
2019-02-19T10:17:51.030Z,12.40
2019-02-19T10:20:19.416Z,12.30
2019-02-19T10:22:47.662Z,12.30
2019-02-19T10:25:16.627Z,12.30
2019-02-19T10:27:45.037Z,12.60
2019-02-19T10:30:20.688Z,13.20
2019-02-19T10:32:49.190Z,13.60
2019-02-19T10:35:17.507Z,14.30
2019-02-19T10:37:45.770Z,14.50
2019-02-19T10:40:17.673Z,14.80
2019-02-19T10:42:45.289Z,15.00
2019-02-19T10:45:19.532Z,14.20
2019-02-19T10:47:47.836Z,13.50
2019-02-19T10:50:16.130Z,13.00
2019-02-19T10:52:44.849Z,13.50
2019-02-19T10:55:14.443Z,14.30
2019-02-19T10:57:42.737Z,14.60
2019-02-19T11:00:18.271Z,15.40
2019-02-19T11:02:46.969Z,15.40
2019-02-19T11:05:15.250Z,15.80
2019-02-19T11:07:43.628Z,15.60
2019-02-19T11:10:15.620Z,14.90
2019-02-19T11:12:43.478Z,14.50
2019-02-19T11:15:13.264Z,14.00
2019-02-19T11:17:41.514Z,13.60
2019-02-19T11:20:19.358Z,13.40
2019-02-19T11:22:47.657Z,13.70
2019-02-19T11:25:15.933Z,13.90
2019-02-19T11:27:44.375Z,13.60
2019-02-19T11:30:18.010Z,13.40
2019-02-19T11:32:46.399Z,13.30
2019-02-19T11:35:14.705Z,12.90
2019-02-19T11:37:43.049Z,12.80
2019-02-19T11:40:12.998Z,12.80
2019-02-19T11:42:41.228Z,12.60
2019-02-19T11:45:12.607Z,12.70
2019-02-19T11:47:44.117Z,12.90
2019-02-19T11:50:13.316Z,13.00
2019-02-19T11:52:41.632Z,13.30
2019-02-19T11:55:18.071Z,13.30
2019-02-19T11:57:46.322Z,13.40
2019-02-19T12:00:26.900Z,13.40
2019-02-19T12:02:55.158Z,13.30
2019-02-19T12:05:23.418Z,12.90
2019-02-19T12:07:52.054Z,12.60
2019-02-19T12:10:20.306Z,12.40
2019-02-19T12:12:48.634Z,12.40
2019-02-19T12:15:16.969Z,12.50
2019-02-19T12:17:45.207Z,12.50
2019-02-19T12:20:14.518Z,12.80
2019-02-19T12:22:42.888Z,12.70
2019-02-19T12:25:11.145Z,12.50
2019-02-19T12:27:39.382Z,12.50
2019-02-19T12:30:13.186Z,13.10
2019-02-19T12:32:42.614Z,13.30
2019-02-19T12:35:10.892Z,13.30
2019-02-19T12:37:39.350Z,13.00
2019-02-19T12:40:10.605Z,12.90
2019-02-19T12:42:38.862Z,12.90
2019-02-19T12:45:11.994Z,12.60
2019-02-19T12:47:40.241Z,12.40
2019-02-19T12:50:14.378Z,13.30
2019-02-19T12:52:42.654Z,14.70
2019-02-19T12:55:11.103Z,15.30
2019-02-19T12:57:39.487Z,15.80
2019-02-19T13:00:17.115Z,16.30
2019-02-19T13:02:45.694Z,15.70
2019-02-19T13:05:15.096Z,15.00
2019-02-19T13:07:43.447Z,14.70
2019-02-19T13:10:12.783Z,14.40
2019-02-19T13:12:41.056Z,14.00
2019-02-19T13:15:12.471Z,13.70
2019-02-19T13:17:40.835Z,13.70
2019-02-19T13:20:14.032Z,14.20
2019-02-19T13:22:42.875Z,14.10
2019-02-19T13:25:16.904Z,13.90
2019-02-19T13:27:45.525Z,13.60
2019-02-19T13:30:20.987Z,13.30
2019-02-19T13:32:49.233Z,13.20
2019-02-19T13:35:17.453Z,13.30
2019-02-19T13:37:46.118Z,13.50
2019-02-19T13:40:20.275Z,13.40
2019-02-19T13:42:48.721Z,13.20
2019-02-19T13:45:16.980Z,13.10
2019-02-19T13:47:45.286Z,13.10
2019-02-19T13:50:26.458Z,13.20
2019-02-19T13:53:02.065Z,13.10
2019-02-19T13:55:32.112Z,13.10
2019-02-19T13:58:00.355Z,13.00
2019-02-19T14:00:30.218Z,12.90
2019-02-19T14:03:02.635Z,13.10
2019-02-19T14:05:31.317Z,13.40
2019-02-19T14:07:59.563Z,13.60
2019-02-19T14:10:27.914Z,13.50
2019-02-19T14:12:56.161Z,13.60
2019-02-19T14:15:39.607Z,13.50
2019-02-19T14:18:09.545Z,13.20
2019-02-19T14:20:45.522Z,13.20
2019-02-19T14:23:31.574Z,13.30
2019-02-19T14:26:16.214Z,13.20
2019-02-19T14:29:02.681Z,12.90
2019-02-19T14:31:46.086Z,12.80
2019-02-19T14:34:15.987Z,12.60
2019-02-19T14:36:46.058Z,12.30
2019-02-19T14:39:31.510Z,12.20
2019-02-19T14:42:17.910Z,12.40
2019-02-19T14:44:56.777Z,12.40
2019-02-19T14:47:33.110Z,12.30
2019-02-19T14:50:10.798Z,12.30
2019-02-19T14:52:56.922Z,12.30
2019-02-19T14:55:43.551Z,12.30
2019-02-19T14:58:16.420Z,12.20
2019-02-19T15:01:02.095Z,12.10
2019-02-19T15:03:35.036Z,12.10
2019-02-19T15:06:17.229Z,12.10
2019-02-19T15:09:03.285Z,12.00
2019-02-19T15:11:42.957Z,12.00
2019-02-19T15:14:29.665Z,12.00
2019-02-19T15:17:14.980Z,12.10
2019-02-19T15:19:45.077Z,12.10
2019-02-19T15:22:28.722Z,12.10
2019-02-19T15:25:12.190Z,12.20
2019-02-19T15:27:50.834Z,12.20
2019-02-19T15:30:28.183Z,12.20
2019-02-19T15:32:55.869Z,12.30
2019-02-19T15:35:33.831Z,12.30
2019-02-19T15:38:10.563Z,12.20
2019-02-19T15:40:43.781Z,12.20
2019-02-19T15:43:30.284Z,12.30
2019-02-19T15:46:06.834Z,12.20
2019-02-19T15:48:47.918Z,12.10
2019-02-19T15:51:27.229Z,12.00
2019-02-19T15:54:13.471Z,12.00
2019-02-19T15:56:55.727Z,11.90
2019-02-19T15:59:34.350Z,11.70
2019-02-19T16:02:16.142Z,11.70
2019-02-19T16:05:04.103Z,11.60
2019-02-19T16:07:38.130Z,11.60
2019-02-19T16:10:09.218Z,11.50
2019-02-19T16:12:45.283Z,11.40
2019-02-19T16:15:21.235Z,11.30
2019-02-19T16:18:09.275Z,11.30
2019-02-19T16:20:45.147Z,11.20
2019-02-19T16:23:28.602Z,11.20
2019-02-19T16:26:00.148Z,11.10
2019-02-19T16:28:32.844Z,11.10
2019-02-19T16:31:03.060Z,11.00
2019-02-19T16:33:42.492Z,11.00
2019-02-19T16:36:12.784Z,11.00
2019-02-19T16:38:42.809Z,11.00
2019-02-19T16:41:21.884Z,11.00
2019-02-19T16:43:58.334Z,11.00
2019-02-19T16:46:44.641Z,11.00
2019-02-19T16:49:19.154Z,11.00
2019-02-19T16:51:52.050Z,10.90
2019-02-19T16:54:31.462Z,10.80
2019-02-19T16:57:01.687Z,10.80
2019-02-19T16:59:48.728Z,10.70
2019-02-19T17:02:36.854Z,10.50
2019-02-19T17:05:24.107Z,10.40
2019-02-19T17:08:10.703Z,10.30
2019-02-19T17:10:44.511Z,10.30
2019-02-19T17:13:20.130Z,10.30
2019-02-19T17:16:12.840Z,10.30
2019-02-19T17:18:42.832Z,10.30
2019-02-19T17:21:31.976Z,10.20
2019-02-19T17:24:08.006Z,10.20
2019-02-19T17:26:50.951Z,10.10
2019-02-19T17:29:20.916Z,10.10
2019-02-19T17:31:57.076Z,10.10
2019-02-19T17:34:31.552Z,10.00
2019-02-19T17:37:01.708Z,9.90
2019-02-19T17:39:46.522Z,9.90
2019-02-19T17:42:16.629Z,9.80
2019-02-19T17:44:46.522Z,9.80
2019-02-19T17:47:34.775Z,9.80
2019-02-19T17:50:21.092Z,9.80
2019-02-19T17:52:56.927Z,9.80
2019-02-19T17:55:39.799Z,9.80
2019-02-19T17:58:26.406Z,9.70
2019-02-19T18:01:05.246Z,9.60
2019-02-19T18:03:51.980Z,9.60
2019-02-19T18:06:27.689Z,9.50
2019-02-19T18:08:59.511Z,9.40
2019-02-19T18:11:32.409Z,9.40
2019-02-19T18:14:15.209Z,9.40
2019-02-19T18:17:00.439Z,9.50
2019-02-19T18:19:28.997Z,9.40
2019-02-19T18:21:57.297Z,9.40
2019-02-19T18:24:25.835Z,9.30
2019-02-19T18:26:54.202Z,9.30
2019-02-19T18:29:22.951Z,9.30
2019-02-19T18:31:51.556Z,9.20
2019-02-19T18:34:19.852Z,9.30
2019-02-19T18:36:48.285Z,9.30
2019-02-19T18:39:16.808Z,9.30
2019-02-19T18:41:45.084Z,9.30
2019-02-19T18:44:13.372Z,9.20
2019-02-19T18:46:41.602Z,9.20
2019-02-19T18:49:10.002Z,9.20
2019-02-19T18:51:38.283Z,9.20
2019-02-19T18:54:06.638Z,9.20
2019-02-19T18:56:35.171Z,9.10
2019-02-19T18:59:03.541Z,9.10
2019-02-19T19:01:31.898Z,9.10
2019-02-19T19:04:00.360Z,9.10
2019-02-19T19:06:28.770Z,9.10
2019-02-19T19:08:57.120Z,9.10
2019-02-19T19:11:25.821Z,9.20
2019-02-19T19:13:55.081Z,9.20
2019-02-19T19:16:23.338Z,9.20
2019-02-19T19:18:51.782Z,9.20
2019-02-19T19:21:20.251Z,9.20
2019-02-19T19:23:48.748Z,9.20
2019-02-19T19:26:18.064Z,9.20
2019-02-19T19:28:46.335Z,9.20
2019-02-19T19:31:14.677Z,9.20
2019-02-19T19:33:43.296Z,9.20
2019-02-19T19:36:11.573Z,9.20
2019-02-19T19:38:39.828Z,9.20
2019-02-19T19:41:08.920Z,9.20
2019-02-19T19:43:37.340Z,9.20
2019-02-19T19:46:05.725Z,9.30
2019-02-19T19:48:34.458Z,9.20
2019-02-19T19:51:02.702Z,9.10
2019-02-19T19:53:30.991Z,9.00
2019-02-19T19:55:59.731Z,9.00
2019-02-19T19:58:28.206Z,9.00
2019-02-19T20:00:56.490Z,8.90
2019-02-19T20:03:25.862Z,8.90
2019-02-19T20:05:54.153Z,8.90
2019-02-19T20:08:22.423Z,8.90
2019-02-19T20:10:51.255Z,8.90
2019-02-19T20:13:20.581Z,8.80
2019-02-19T20:15:48.849Z,8.80
2019-02-19T20:18:18.747Z,8.80
2019-02-19T20:20:47.073Z,8.70
2019-02-19T20:23:15.490Z,8.70
2019-02-19T20:25:43.993Z,8.60
2019-02-19T20:28:12.356Z,8.60
2019-02-19T20:30:40.638Z,8.50
2019-02-19T20:33:09.238Z,8.50
2019-02-19T20:35:37.666Z,8.40
2019-02-19T20:38:06.786Z,8.40
2019-02-19T20:40:35.337Z,8.30
2019-02-19T20:43:03.600Z,8.20
2019-02-19T20:45:31.909Z,8.30
2019-02-19T20:48:00.550Z,8.20
2019-02-19T20:50:28.897Z,8.30
2019-02-19T20:52:57.221Z,8.30
2019-02-19T20:55:25.927Z,8.20
2019-02-19T20:57:54.263Z,8.30
2019-02-19T21:00:22.595Z,8.30
2019-02-19T21:02:50.870Z,8.30
2019-02-19T21:05:19.282Z,8.30
2019-02-19T21:07:47.670Z,8.20
2019-02-19T21:10:20.515Z,8.20
2019-02-19T21:12:48.909Z,8.20
2019-02-19T21:15:17.232Z,8.30
2019-02-19T21:17:45.960Z,8.30
2019-02-19T21:20:14.248Z,8.20
2019-02-19T21:22:43.421Z,8.20
2019-02-19T21:25:12.563Z,8.30
2019-02-19T21:27:40.879Z,8.30
2019-02-19T21:30:16.327Z,8.40
2019-02-19T21:32:44.724Z,8.40
2019-02-19T21:35:13.028Z,8.40
2019-02-19T21:37:41.480Z,8.40
2019-02-19T21:40:16.331Z,8.30
2019-02-19T21:42:44.612Z,8.20
2019-02-19T21:45:14.221Z,8.20
2019-02-19T21:47:42.677Z,8.10
2019-02-19T21:50:12.311Z,8.10
2019-02-19T21:52:40.657Z,8.00
2019-02-19T21:55:10.694Z,8.00
2019-02-19T21:57:38.953Z,7.90
2019-02-19T22:00:14.940Z,7.90
2019-02-19T22:02:43.228Z,7.80
2019-02-19T22:05:11.538Z,7.80
2019-02-19T22:07:40.118Z,7.70
2019-02-19T22:10:13.074Z,7.60
2019-02-19T22:12:41.593Z,7.60
2019-02-19T22:15:12.259Z,7.60
2019-02-19T22:17:40.587Z,7.60
2019-02-19T22:20:25.746Z,7.60
2019-02-19T22:22:54.031Z,7.60
2019-02-19T22:25:22.716Z,7.50
2019-02-19T22:27:51.480Z,7.50
2019-02-19T22:30:19.793Z,7.40
2019-02-19T22:32:48.151Z,7.40
2019-02-19T22:35:16.723Z,7.40
2019-02-19T22:37:45.104Z,7.30
2019-02-19T22:40:13.439Z,7.40
2019-02-19T22:42:41.976Z,7.30
2019-02-19T22:45:10.316Z,7.30
2019-02-19T22:47:38.570Z,7.20
2019-02-19T22:50:08.867Z,7.20
2019-02-19T22:52:37.111Z,7.10
2019-02-19T22:55:12.125Z,7.10
2019-02-19T22:57:40.396Z,7.10
2019-02-19T23:00:16.784Z,7.00
2019-02-19T23:02:45.058Z,7.00
2019-02-19T23:05:13.327Z,7.10
2019-02-19T23:07:41.820Z,7.10
2019-02-19T23:10:10.080Z,7.10
2019-02-19T23:12:38.315Z,7.20
2019-02-19T23:15:06.827Z,7.20
2019-02-19T23:17:35.075Z,7.20
2019-02-19T23:20:04.165Z,7.30
2019-02-19T23:22:32.750Z,7.30
2019-02-19T23:25:01.047Z,7.40
2019-02-19T23:27:29.385Z,7.50
2019-02-19T23:29:57.762Z,7.50
2019-02-19T23:32:26.108Z,7.50
2019-02-19T23:34:56.011Z,7.50
2019-02-19T23:37:24.539Z,7.50
2019-02-19T23:39:54.458Z,7.50
2019-02-19T23:42:22.699Z,7.50
2019-02-19T23:44:51.134Z,7.50
2019-02-19T23:47:19.385Z,7.50
2019-02-19T23:49:47.687Z,7.50
2019-02-19T23:52:16.114Z,7.50
2019-02-19T23:54:44.637Z,7.50
2019-02-19T23:57:12.895Z,7.50
2019-02-19T23:59:41.305Z,7.50
